Lille, France

11:58 PM CET on February 12, 2016 (GMT +0100)
Lesquin | | Change Station
CLOSE
Current Station
Airport
Location: Lille,
Elevation: 154 ft
Nearby Weather Stations

Elev 154 ft 50.57 °N, 3.10 °E | Updated 28 minutes ago

Clear
Clear
36 °F
Feels Like 31 °F
N
6
Wind Variable Wind from NE

Today
High -- | Low -- °F
--% Chance of Precip.
Yesterday
High -- | Low -- °F
Precip. -- in
Pressure 29.39 in
Visibility -9999.0 miles
Clouds
Windchill 31 °F
Dew Point 32 °F
Humidity 87%
Rainfall 0.00 in
Snow Depth Not available.
8:05 AM 5:58 PM
Waxing Crescent, 24% visible
METAR LFQQ 122230Z AUTO 04005KT CAVOK 02/M00 Q0995
Pressure 29.39 in
Visibility -9999.0 miles
Clouds
Windchill 31 °F
Dew Point 32 °F
Humidity 87%
Rainfall 0.00 in
Snow Depth Not available.
8:05 AM 5:58 PM
Waxing Crescent, 24% visible
METAR LFQQ 122230Z AUTO 04005KT CAVOK 02/M00 Q0995

10-Day Weather Forecast

Almanac

Astronomy

Feb. 12, 2016 Rise Set
Actual Time
Civil Twilight
Nautical Twilight
Astronomical Twilight
Moon
Length of Visible Light
Length of Day
Tomorrow will be .
, % of the Moon is Illuminated

Today's Extremes

Country Highs Country Lows

Community

WunderPhotos

Upload Photos

1,892,424 photos uploaded!

WunderBlog® & News

Nearby

Air Quality

  Air Quality AQ Index Pollutant
Not available.

Snow Depth

Station Depth Elevation

Earthquake Activity

City Distance Mag. Time & Date
Minimum magnitude displayed is 2.5.

Coastal Water Temperatures

Place Temperature

Stations

Nearby Weather Stations

Station Location Temp. Windchill Dew Point Humidity Wind Precip. Elev Updated Type